createdAt,value
2018-09-20T00:00:05.829Z,9.47
2018-09-20T00:02:38.092Z,9.77
2018-09-20T00:05:07.003Z,10.47
2018-09-20T00:07:35.979Z,10.90
2018-09-20T00:10:05.524Z,10.20
2018-09-20T00:12:34.607Z,12.40
2018-09-20T00:15:04.610Z,12.77
2018-09-20T00:17:33.392Z,10.30
2018-09-20T00:20:02.283Z,17.17
2018-09-20T00:22:31.081Z,10.90
2018-09-20T00:24:59.935Z,11.80
2018-09-20T00:27:28.825Z,9.80
2018-09-20T00:30:02.170Z,11.77
2018-09-20T00:32:31.058Z,11.97
2018-09-20T00:34:59.876Z,12.33
2018-09-20T00:37:28.769Z,12.57
2018-09-20T00:39:57.756Z,11.67
2018-09-20T00:42:26.597Z,14.00
2018-09-20T00:44:55.476Z,11.03
2018-09-20T00:47:24.327Z,11.57
2018-09-20T00:49:53.303Z,11.07
2018-09-20T00:52:22.202Z,11.57
2018-09-20T00:54:51.170Z,13.90
2018-09-20T00:57:19.989Z,11.13
2018-09-20T00:59:53.643Z,10.70
2018-09-20T01:02:22.550Z,10.20
2018-09-20T01:04:51.370Z,12.30
2018-09-20T01:07:20.278Z,10.60
2018-09-20T01:09:49.205Z,13.40
2018-09-20T01:12:18.000Z,9.97
2018-09-20T01:14:46.870Z,12.43
2018-09-20T01:17:15.699Z,13.57
2018-09-20T01:19:44.582Z,11.97
2018-09-20T01:22:13.405Z,11.50
2018-09-20T01:24:42.310Z,10.93
2018-09-20T01:27:11.187Z,15.57
2018-09-20T01:29:39.971Z,12.87
2018-09-20T01:32:08.794Z,11.23
2018-09-20T01:34:37.713Z,11.63
2018-09-20T01:37:06.592Z,10.97
2018-09-20T01:39:35.493Z,9.90
2018-09-20T01:42:04.386Z,11.37
2018-09-20T01:44:33.301Z,10.57
2018-09-20T01:47:02.191Z,9.10
2018-09-20T01:49:31.140Z,11.37
2018-09-20T01:52:00.350Z,14.07
2018-09-20T01:54:29.232Z,11.30
2018-09-20T01:56:58.067Z,10.67
2018-09-20T01:59:26.988Z,17.00
2018-09-20T02:01:55.910Z,11.00
2018-09-20T02:04:24.751Z,11.00
2018-09-20T02:06:53.731Z,11.90
2018-09-20T02:09:22.521Z,13.03
2018-09-20T02:11:51.414Z,13.50
2018-09-20T02:14:23.895Z,11.87
2018-09-20T02:16:52.748Z,11.57
2018-09-20T02:19:21.656Z,10.17
2018-09-20T02:21:50.551Z,12.57
2018-09-20T02:24:19.389Z,12.33
2018-09-20T02:26:48.348Z,12.87
2018-09-20T02:29:17.308Z,10.60
2018-09-20T02:31:46.249Z,13.07
2018-09-20T02:34:15.187Z,11.33
2018-09-20T02:36:44.295Z,12.90
2018-09-20T02:39:13.133Z,12.73
2018-09-20T02:41:42.066Z,13.20
2018-09-20T02:44:11.015Z,12.87
2018-09-20T02:46:39.981Z,12.93
2018-09-20T02:49:08.835Z,15.80
2018-09-20T02:51:41.190Z,15.37
2018-09-20T02:54:10.068Z,13.60
2018-09-20T02:56:38.871Z,12.70
2018-09-20T02:59:07.774Z,15.30
2018-09-20T03:01:36.567Z,11.97
2018-09-20T03:04:05.384Z,13.87
2018-09-20T03:06:34.199Z,12.63
2018-09-20T03:09:03.271Z,14.63
2018-09-20T03:11:32.185Z,15.43
2018-09-20T03:14:03.079Z,14.47
2018-09-20T03:16:31.978Z,11.13
2018-09-20T03:19:00.857Z,13.10
2018-09-20T03:21:29.819Z,14.83
2018-09-20T03:23:58.760Z,15.03
2018-09-20T03:26:27.760Z,13.10
2018-09-20T03:28:58.712Z,14.70
2018-09-20T03:31:27.493Z,12.00
2018-09-20T03:33:56.735Z,15.00
2018-09-20T03:36:25.660Z,13.13
2018-09-20T03:38:54.535Z,14.57
2018-09-20T03:41:23.460Z,14.10
2018-09-20T03:43:52.879Z,13.20
2018-09-20T03:46:22.851Z,13.27
2018-09-20T03:48:51.754Z,12.87
2018-09-20T03:51:20.672Z,14.27
2018-09-20T03:53:49.553Z,12.80
2018-09-20T03:56:18.413Z,14.50
2018-09-20T03:58:47.239Z,15.10
2018-09-20T04:01:16.235Z,17.00
2018-09-20T04:03:45.042Z,12.40
2018-09-20T04:06:13.981Z,16.93
2018-09-20T04:08:42.833Z,12.53
2018-09-20T04:11:11.705Z,13.77
2018-09-20T04:13:40.621Z,14.73
2018-09-20T04:16:09.403Z,14.83
2018-09-20T04:18:38.209Z,12.67
2018-09-20T04:21:07.021Z,16.87
2018-09-20T04:23:35.849Z,12.80
2018-09-20T04:26:04.739Z,15.17
2018-09-20T04:28:34.757Z,14.83
2018-09-20T04:31:03.530Z,19.30
2018-09-20T04:33:32.330Z,14.50
2018-09-20T04:36:01.138Z,17.90
2018-09-20T04:38:30.007Z,12.27
2018-09-20T04:40:58.823Z,16.03
2018-09-20T04:43:27.665Z,17.30
2018-09-20T04:45:56.521Z,16.33
2018-09-20T04:48:25.375Z,16.93
2018-09-20T04:50:54.160Z,16.30
2018-09-20T04:53:23.088Z,14.37
2018-09-20T04:55:51.854Z,17.53
2018-09-20T04:58:20.686Z,16.13
2018-09-20T05:00:49.557Z,14.23
2018-09-20T05:03:18.478Z,17.73
2018-09-20T05:05:47.392Z,18.23
2018-09-20T05:08:16.370Z,15.67
2018-09-20T05:10:45.376Z,18.90
2018-09-20T05:13:14.281Z,16.87
2018-09-20T05:15:43.054Z,16.03
2018-09-20T05:18:11.956Z,19.17
2018-09-20T05:20:40.837Z,17.37
2018-09-20T05:23:09.818Z,15.70
2018-09-20T05:25:38.705Z,14.73
2018-09-20T05:28:07.691Z,14.63
2018-09-20T05:30:36.537Z,17.47
2018-09-20T05:33:05.456Z,15.83
2018-09-20T05:35:34.356Z,15.10
2018-09-20T05:38:03.129Z,18.80
2018-09-20T05:40:32.059Z,21.30
2018-09-20T05:43:00.919Z,19.00
2018-09-20T05:45:29.773Z,15.47
2018-09-20T05:47:58.610Z,18.43
2018-09-20T05:50:27.426Z,16.00
2018-09-20T05:52:56.366Z,17.40
2018-09-20T05:55:25.276Z,17.63
2018-09-20T05:57:55.107Z,15.73
2018-09-20T06:00:23.976Z,16.67
2018-09-20T06:02:52.917Z,26.40
2018-09-20T06:05:21.754Z,17.83
2018-09-20T06:07:50.690Z,21.07
2018-09-20T06:10:19.525Z,18.37
2018-09-20T06:12:48.380Z,18.87
2018-09-20T06:15:23.687Z,21.03
2018-09-20T06:17:52.624Z,17.23
2018-09-20T06:20:21.457Z,18.80
2018-09-20T06:22:50.291Z,17.03
2018-09-20T06:25:19.201Z,17.00
2018-09-20T06:27:48.081Z,20.60
2018-09-20T06:30:16.951Z,18.00
2018-09-20T06:32:45.740Z,15.57
2018-09-20T06:35:14.522Z,17.40
2018-09-20T06:37:43.332Z,18.13
2018-09-20T06:40:12.152Z,23.50
2018-09-20T06:42:40.976Z,18.00
2018-09-20T06:45:09.897Z,18.93
2018-09-20T06:47:38.747Z,20.70
2018-09-20T06:50:07.869Z,21.93
2018-09-20T06:52:36.762Z,21.80
2018-09-20T06:55:05.695Z,21.10
2018-09-20T06:57:36.468Z,17.40
2018-09-20T07:00:06.803Z,17.07
2018-09-20T07:02:35.971Z,20.80
2018-09-20T07:05:05.706Z,13.57
2018-09-20T07:07:34.597Z,19.30
2018-09-20T07:10:03.475Z,28.07
2018-09-20T07:12:32.238Z,27.27
2018-09-20T07:15:01.102Z,18.93
2018-09-20T07:17:29.908Z,24.33
2018-09-20T07:19:58.775Z,25.00
2018-09-20T07:22:27.663Z,18.40
2018-09-20T07:24:56.549Z,18.80
2018-09-20T07:27:25.452Z,27.73
2018-09-20T07:29:54.235Z,20.23
2018-09-20T07:32:23.068Z,26.37
2018-09-20T07:34:51.854Z,18.17
2018-09-20T07:37:20.651Z,19.50
2018-09-20T07:39:49.479Z,19.00
2018-09-20T07:42:18.351Z,16.00
2018-09-20T07:44:48.281Z,16.03
2018-09-20T07:47:17.083Z,18.70
2018-09-20T07:49:45.871Z,16.57
2018-09-20T07:52:14.681Z,13.40
2018-09-20T07:54:43.646Z,15.80
2018-09-20T07:57:12.550Z,12.93
2018-09-20T07:59:41.543Z,15.17
2018-09-20T08:02:10.262Z,16.33
2018-09-20T08:04:39.050Z,19.20
2018-09-20T08:07:08.441Z,18.40
2018-09-20T08:09:37.277Z,15.90
2018-09-20T08:12:06.224Z,14.40
2018-09-20T08:14:40.694Z,15.20
2018-09-20T08:17:09.646Z,13.83
2018-09-20T08:19:38.545Z,16.43
2018-09-20T08:22:07.380Z,15.50
2018-09-20T08:24:36.230Z,16.20
2018-09-20T08:27:05.028Z,11.77
2018-09-20T08:29:33.871Z,13.63
2018-09-20T08:32:02.641Z,17.20
2018-09-20T08:34:31.536Z,12.70
2018-09-20T08:37:00.327Z,14.00
2018-09-20T08:39:29.122Z,17.53
2018-09-20T08:41:58.018Z,18.43
2018-09-20T08:44:26.861Z,16.73
2018-09-20T08:46:55.648Z,13.47
2018-09-20T08:49:24.536Z,14.83
2018-09-20T08:51:59.251Z,16.60
2018-09-20T08:54:28.252Z,13.63
2018-09-20T08:56:57.230Z,15.43
2018-09-20T08:59:26.055Z,11.97
2018-09-20T09:01:54.873Z,13.60
2018-09-20T09:04:23.878Z,12.07
2018-09-20T09:06:52.722Z,13.73
2018-09-20T09:09:21.627Z,15.27
2018-09-20T09:11:50.473Z,15.57
2018-09-20T09:14:19.277Z,15.13
2018-09-20T09:16:48.160Z,11.77
2018-09-20T09:19:17.043Z,11.20
2018-09-20T09:21:46.044Z,11.97
2018-09-20T09:24:14.943Z,14.23
2018-09-20T09:26:43.932Z,12.50
2018-09-20T09:29:13.753Z,11.60
2018-09-20T09:31:42.674Z,13.30
2018-09-20T09:34:11.387Z,13.60
2018-09-20T09:36:40.204Z,9.20
2018-09-20T09:39:10.833Z,13.00
2018-09-20T09:41:39.730Z,12.23
2018-09-20T09:44:08.554Z,8.60
2018-09-20T09:46:37.437Z,9.53
2018-09-20T09:49:06.422Z,11.63
2018-09-20T09:51:35.185Z,9.87
2018-09-20T09:54:04.001Z,9.37
2018-09-20T09:56:32.819Z,8.50
2018-09-20T09:59:01.563Z,9.90
2018-09-20T10:01:30.660Z,9.80
2018-09-20T10:03:59.567Z,11.13
2018-09-20T10:06:28.467Z,15.70
2018-09-20T10:08:57.342Z,10.50
2018-09-20T10:11:26.247Z,11.20
2018-09-20T10:13:55.134Z,10.53
2018-09-20T10:16:23.932Z,7.87
2018-09-20T10:18:52.726Z,10.13
2018-09-20T10:21:21.627Z,9.20
2018-09-20T10:23:50.621Z,8.43
2018-09-20T10:26:19.498Z,10.80
2018-09-20T10:28:48.357Z,9.83
2018-09-20T10:31:17.269Z,7.57
2018-09-20T10:33:46.121Z,9.00
2018-09-20T10:36:14.910Z,12.17
2018-09-20T10:38:48.120Z,9.53
2018-09-20T10:41:16.990Z,9.70
2018-09-20T10:43:45.750Z,9.07
2018-09-20T10:46:14.588Z,10.30
2018-09-20T10:48:43.317Z,11.00
2018-09-20T10:51:12.406Z,8.10
2018-09-20T10:53:44.365Z,10.33
2018-09-20T10:56:13.240Z,7.37
2018-09-20T10:58:42.146Z,9.43
2018-09-20T11:01:10.898Z,8.53
2018-09-20T11:03:39.723Z,8.47
2018-09-20T11:06:08.474Z,6.73
2018-09-20T11:08:37.274Z,7.53
2018-09-20T11:11:06.174Z,6.40
2018-09-20T11:13:34.793Z,8.90
2018-09-20T11:16:03.570Z,11.07
2018-09-20T11:18:32.402Z,6.80
2018-09-20T11:21:01.231Z,6.70
2018-09-20T11:23:32.110Z,7.10
2018-09-20T11:26:01.005Z,7.87
2018-09-20T11:28:29.837Z,8.23
2018-09-20T11:30:58.602Z,9.43
2018-09-20T11:33:27.437Z,6.73
2018-09-20T11:35:56.277Z,7.40
2018-09-20T11:38:25.025Z,9.30
2018-09-20T11:40:53.866Z,7.80
2018-09-20T11:43:22.712Z,6.90
2018-09-20T11:45:51.521Z,7.40
2018-09-20T11:48:20.291Z,9.30
2018-09-20T11:50:49.046Z,7.47
2018-09-20T11:53:17.947Z,8.20
2018-09-20T11:55:49.889Z,7.00
2018-09-20T11:58:18.705Z,8.67
2018-09-20T12:00:47.464Z,8.37
2018-09-20T12:03:16.210Z,9.80
2018-09-20T12:05:44.892Z,7.23
2018-09-20T12:08:13.784Z,8.13
2018-09-20T12:10:42.641Z,6.87
2018-09-20T12:13:11.435Z,7.77
2018-09-20T12:15:40.289Z,8.10
2018-09-20T12:18:09.130Z,7.60
2018-09-20T12:20:37.957Z,6.57
2018-09-20T12:23:06.764Z,10.03
2018-09-20T12:25:35.494Z,5.83
2018-09-20T12:28:04.392Z,7.63
2018-09-20T12:30:37.495Z,7.13
2018-09-20T12:33:06.368Z,6.60
2018-09-20T12:35:35.250Z,8.70
2018-09-20T12:38:04.049Z,6.43
2018-09-20T12:40:32.812Z,7.03
2018-09-20T12:43:01.807Z,7.53
2018-09-20T12:45:30.537Z,6.73
2018-09-20T12:47:59.288Z,6.90
2018-09-20T12:50:28.094Z,6.83
2018-09-20T12:52:57.014Z,7.47
2018-09-20T12:55:25.846Z,5.80
2018-09-20T12:57:54.646Z,6.80
2018-09-20T13:00:23.419Z,7.13
2018-09-20T13:02:52.219Z,8.63
2018-09-20T13:05:21.009Z,7.27
2018-09-20T13:07:49.759Z,7.73
2018-09-20T13:10:18.537Z,6.80
2018-09-20T13:12:47.342Z,6.80
2018-09-20T13:15:16.159Z,5.73
2018-09-20T13:17:45.004Z,6.80
2018-09-20T13:20:13.864Z,6.50
2018-09-20T13:22:42.632Z,7.27
2018-09-20T13:25:11.415Z,7.10
2018-09-20T13:27:40.298Z,6.07
2018-09-20T13:30:09.198Z,7.90
2018-09-20T13:32:38.012Z,6.00
2018-09-20T13:35:06.770Z,6.87
2018-09-20T13:37:35.623Z,6.23
2018-09-20T13:40:04.556Z,7.50
2018-09-20T13:42:33.362Z,6.43
2018-09-20T13:45:02.197Z,7.00
2018-09-20T13:47:31.050Z,6.83
2018-09-20T13:49:59.763Z,6.40
2018-09-20T13:52:28.569Z,10.60
2018-09-20T13:54:58.494Z,5.40
2018-09-20T13:57:27.206Z,6.53
2018-09-20T13:59:57.085Z,8.00
2018-09-20T14:02:25.780Z,6.10
2018-09-20T14:04:54.647Z,9.10
2018-09-20T14:07:23.550Z,5.83
2018-09-20T14:09:52.344Z,6.13
2018-09-20T14:12:21.117Z,6.13
2018-09-20T14:14:50.012Z,5.20
2018-09-20T14:17:18.782Z,7.10
2018-09-20T14:19:47.525Z,6.77
2018-09-20T14:22:16.274Z,6.10
2018-09-20T14:24:45.063Z,6.40
2018-09-20T14:27:13.844Z,6.10
2018-09-20T14:29:42.672Z,5.97
2018-09-20T14:32:11.838Z,5.57
2018-09-20T14:34:40.631Z,5.70
2018-09-20T14:37:09.358Z,5.60
2018-09-20T14:39:38.192Z,5.67
2018-09-20T14:42:07.236Z,6.87
2018-09-20T14:44:35.954Z,4.97
2018-09-20T14:47:04.926Z,6.27
2018-09-20T14:49:33.671Z,5.53
2018-09-20T14:55:00.409Z,7.63
2018-09-20T14:57:28.985Z,5.40
2018-09-20T14:59:57.645Z,5.40
2018-09-20T15:02:26.248Z,10.27
2018-09-20T15:04:54.888Z,6.40
2018-09-20T15:07:23.551Z,7.40
2018-09-20T15:09:52.181Z,5.37
2018-09-20T15:12:20.751Z,9.80
2018-09-20T15:14:49.449Z,7.27
2018-09-20T15:17:18.034Z,5.97
2018-09-20T15:19:46.637Z,8.37
2018-09-20T15:22:15.237Z,6.93
2018-09-20T15:24:43.837Z,6.60
2018-09-20T15:27:12.364Z,6.07
2018-09-20T15:29:41.034Z,6.20
2018-09-20T15:32:09.695Z,5.87
2018-09-20T15:34:38.316Z,6.13
2018-09-20T15:37:06.923Z,5.53
2018-09-20T15:39:35.545Z,5.80
2018-09-20T15:42:04.139Z,8.33
2018-09-20T15:44:32.834Z,6.17
2018-09-20T15:47:01.407Z,6.07
2018-09-20T15:49:30.003Z,9.07
2018-09-20T15:51:58.634Z,6.13
2018-09-20T15:54:29.602Z,7.73
2018-09-20T15:56:58.194Z,9.27
2018-09-20T15:59:26.831Z,8.80
2018-09-20T16:01:55.477Z,7.70
2018-09-20T16:04:23.980Z,5.67
2018-09-20T16:06:52.645Z,6.03
2018-09-20T16:09:25.502Z,5.63
2018-09-20T16:11:54.117Z,6.50
2018-09-20T16:14:22.813Z,7.43
2018-09-20T16:16:51.401Z,6.90
2018-09-20T16:19:20.183Z,8.20
2018-09-20T16:21:48.754Z,6.83
2018-09-20T16:24:21.701Z,7.73
2018-09-20T16:26:50.340Z,7.40
2018-09-20T16:29:45.600Z,7.07
2018-09-20T16:33:09.209Z,6.70
2018-09-20T16:35:52.689Z,8.97
2018-09-20T16:38:30.732Z,7.93
2018-09-20T16:41:02.620Z,7.07
2018-09-20T16:43:31.545Z,6.97
2018-09-20T16:46:01.155Z,5.83
2018-09-20T16:48:46.208Z,7.00
2018-09-20T16:51:14.769Z,8.97
2018-09-20T16:53:43.381Z,11.93
2018-09-20T16:56:11.921Z,8.10
2018-09-20T16:58:45.847Z,6.70
2018-09-20T17:01:14.431Z,6.07
2018-09-20T17:03:43.007Z,6.87
2018-09-20T17:06:11.584Z,7.30
2018-09-20T17:08:43.351Z,9.53
2018-09-20T17:11:12.070Z,6.73
2018-09-20T17:13:40.667Z,7.40
2018-09-20T17:16:10.457Z,6.47
2018-09-20T17:18:39.156Z,6.67
2018-09-20T17:21:08.310Z,6.33
2018-09-20T17:23:36.873Z,7.90
2018-09-20T17:26:05.494Z,6.40
2018-09-20T17:28:33.998Z,8.63
2018-09-20T17:31:02.696Z,9.13
2018-09-20T17:33:31.289Z,9.40
2018-09-20T17:36:00.038Z,8.13
2018-09-20T17:38:29.799Z,7.77
2018-09-20T17:41:03.775Z,7.67
2018-09-20T17:43:49.985Z,8.00
2018-09-20T17:46:18.619Z,7.27
2018-09-20T17:48:47.844Z,8.70
2018-09-20T17:51:17.359Z,8.50
2018-09-20T17:53:46.471Z,9.07
2018-09-20T17:56:15.861Z,12.60
2018-09-20T17:58:46.113Z,9.67
2018-09-20T18:01:14.761Z,7.80
2018-09-20T18:03:43.304Z,10.80
2018-09-20T18:06:12.234Z,8.23
2018-09-20T18:08:40.840Z,9.73
2018-09-20T18:11:09.460Z,7.20
2018-09-20T18:13:38.098Z,8.10
2018-09-20T18:16:06.689Z,7.63
2018-09-20T18:18:36.319Z,10.50
2018-09-20T18:21:04.937Z,8.37
2018-09-20T18:23:33.620Z,7.57
2018-09-20T18:26:02.259Z,8.30
2018-09-20T18:28:30.829Z,7.30
2018-09-20T18:30:59.451Z,10.53
2018-09-20T18:33:29.123Z,8.30
2018-09-20T18:35:57.676Z,10.30
2018-09-20T18:38:26.267Z,9.27
2018-09-20T18:40:54.826Z,8.37
2018-09-20T18:43:23.393Z,8.43
2018-09-20T18:45:52.004Z,11.80
2018-09-20T18:48:20.567Z,15.03
2018-09-20T18:50:49.235Z,8.43
2018-09-20T18:53:17.884Z,10.50
2018-09-20T18:55:46.543Z,8.43
2018-09-20T18:58:15.111Z,7.73
2018-09-20T19:00:43.664Z,6.57
2018-09-20T19:03:12.280Z,8.73
2018-09-20T19:06:16.553Z,8.97
2018-09-20T19:08:45.091Z,6.90
2018-09-20T19:11:14.731Z,9.43
2018-09-20T19:13:43.516Z,12.57
2018-09-20T19:16:13.022Z,13.20
2018-09-20T19:18:42.022Z,12.60
2018-09-20T19:21:10.672Z,8.60
2018-09-20T19:23:39.313Z,8.23
2018-09-20T19:26:07.949Z,8.90
2018-09-20T19:28:36.590Z,8.47
2018-09-20T19:31:05.206Z,9.07
2018-09-20T19:33:33.829Z,8.37
2018-09-20T19:36:02.469Z,8.13
2018-09-20T19:38:37.034Z,9.40
2018-09-20T19:41:05.868Z,8.77
2018-09-20T19:43:34.417Z,9.37
2018-09-20T19:46:03.054Z,9.00
2018-09-20T19:48:31.647Z,8.87
2018-09-20T19:51:00.263Z,15.07
2018-09-20T19:53:30.885Z,12.73
2018-09-20T19:55:59.517Z,9.50
2018-09-20T19:58:28.124Z,10.67
2018-09-20T20:00:57.315Z,8.60
2018-09-20T20:03:25.854Z,12.90
2018-09-20T20:05:54.438Z,10.40
2018-09-20T20:08:23.057Z,8.63
2018-09-20T20:10:51.637Z,9.30
2018-09-20T20:13:20.223Z,7.93
2018-09-20T20:15:48.829Z,9.20
2018-09-20T20:18:17.370Z,15.40
2018-09-20T20:20:45.943Z,12.30
2018-09-20T20:23:14.533Z,7.90
2018-09-20T20:25:43.126Z,9.50
2018-09-20T20:28:11.778Z,7.50
2018-09-20T20:30:40.587Z,9.10
2018-09-20T20:33:09.154Z,10.40
2018-09-20T20:35:37.716Z,8.37
2018-09-20T20:38:06.440Z,10.70
2018-09-20T20:40:34.997Z,11.73
2018-09-20T20:43:04.616Z,10.30
2018-09-20T20:45:33.172Z,7.07
2018-09-20T20:48:01.747Z,12.53
2018-09-20T20:50:30.344Z,8.70
2018-09-20T20:52:59.062Z,7.53
2018-09-20T20:55:27.606Z,8.73
2018-09-20T20:57:56.262Z,7.17
2018-09-20T21:00:24.857Z,8.97
2018-09-20T21:02:53.441Z,7.93
2018-09-20T21:05:22.041Z,9.90
2018-09-20T21:07:50.602Z,11.43
2018-09-20T21:10:19.208Z,9.50
2018-09-20T21:12:47.835Z,13.07
2018-09-20T21:15:16.383Z,9.97
2018-09-20T21:17:45.005Z,12.20
2018-09-20T21:20:13.560Z,9.03
2018-09-20T21:22:42.183Z,8.50
2018-09-20T21:25:10.780Z,10.17
2018-09-20T21:27:39.432Z,10.30
2018-09-20T21:30:09.005Z,9.20
2018-09-20T21:32:37.637Z,10.77
2018-09-20T21:35:06.219Z,8.43
2018-09-20T21:37:34.842Z,8.20
2018-09-20T21:40:03.531Z,9.93
2018-09-20T21:42:32.842Z,10.30
2018-09-20T21:45:01.432Z,11.40
2018-09-20T21:47:30.079Z,10.00
2018-09-20T21:49:58.616Z,15.90
2018-09-20T21:52:27.216Z,11.80
2018-09-20T21:54:55.788Z,10.20
2018-09-20T21:57:24.342Z,10.20
2018-09-20T21:59:52.897Z,12.57
2018-09-20T22:02:26.646Z,10.93
2018-09-20T22:04:55.200Z,9.30
2018-09-20T22:07:30.091Z,11.83
2018-09-20T22:09:58.606Z,9.60
2018-09-20T22:12:27.224Z,10.13
2018-09-20T22:14:55.809Z,11.70
2018-09-20T22:17:24.338Z,10.37
2018-09-20T22:19:52.980Z,9.90
2018-09-20T22:22:21.703Z,12.13
2018-09-20T22:24:50.299Z,16.70
2018-09-20T22:27:18.887Z,10.60
2018-09-20T22:29:47.589Z,10.43
2018-09-20T22:32:16.146Z,12.27
2018-09-20T22:34:44.661Z,11.97
2018-09-20T22:37:13.256Z,14.47
2018-09-20T22:39:47.227Z,11.00
2018-09-20T22:42:15.833Z,12.00
2018-09-20T22:44:44.427Z,13.77
2018-09-20T22:47:13.001Z,14.20
2018-09-20T22:49:41.621Z,13.07
2018-09-20T22:52:10.153Z,11.57
2018-09-20T22:54:44.708Z,10.50
2018-09-20T22:57:13.331Z,13.07
2018-09-20T22:59:42.050Z,14.80
2018-09-20T23:02:10.688Z,13.37
2018-09-20T23:04:39.208Z,9.80
2018-09-20T23:07:11.214Z,11.40
2018-09-20T23:09:39.899Z,13.83
2018-09-20T23:12:08.550Z,11.00
2018-09-20T23:14:37.460Z,11.63
2018-09-20T23:17:06.290Z,10.00
2018-09-20T23:19:41.059Z,11.90
2018-09-20T23:22:09.622Z,11.90
2018-09-20T23:24:38.244Z,10.90
2018-09-20T23:27:06.849Z,10.40
2018-09-20T23:29:35.452Z,11.53
2018-09-20T23:32:04.033Z,14.23
2018-09-20T23:34:32.613Z,14.93
2018-09-20T23:37:01.171Z,10.40
2018-09-20T23:39:29.782Z,12.17
2018-09-20T23:41:58.351Z,14.40
2018-09-20T23:44:28.000Z,11.43
2018-09-20T23:46:56.603Z,12.77
2018-09-20T23:49:25.239Z,12.30
2018-09-20T23:51:53.809Z,13.17
2018-09-20T23:54:22.430Z,17.80
2018-09-20T23:56:51.071Z,15.10
2018-09-20T23:59:23.241Z,13.67
